Time;durP1;ratioP1;P1;durP2;ratioP2;P2;SDS_P1;SDS_P2;PMS_P1;PMS_P2;Temp;Humidity;BMP_temperature;BMP_pressure;BME280_temperature;BME280_humidity;BME280_pressure;Samples;Min_cycle;Max_cycle;Signal;HPM_P1;HPM_P2
2022/07/07 00:02:08;;;;;;;7.97;5.20;;;14.70;99.90;;;;;;5001803;28;20026;-69
2022/07/07 00:04:34;;;;;;;8.20;5.45;;;14.70;99.90;;;;;;5001807;28;20031;-67
2022/07/07 00:06:59;;;;;;;16.02;6.25;;;14.70;99.90;;;;;;5002221;28;20107;-68
2022/07/07 00:09:27;;;;;;;18.27;6.43;;;14.80;99.90;;;;;;5001983;28;20030;-70
2022/07/07 00:11:53;;;;;;;10.82;5.63;;;14.80;99.90;;;;;;5002109;28;20498;-69
2022/07/07 00:14:18;;;;;;;12.13;6.22;;;14.80;99.90;;;;;;5001676;28;20026;-73
2022/07/07 00:16:44;;;;;;;15.23;6.82;;;14.80;99.90;;;;;;5001720;28;20030;-68
2022/07/07 00:19:10;;;;;;;13.18;6.50;;;14.80;99.90;;;;;;5002118;28;20109;-68
2022/07/07 00:21:35;;;;;;;12.43;6.85;;;14.80;99.90;;;;;;5001835;28;20033;-69
2022/07/07 00:24:01;;;;;;;14.73;8.05;;;14.80;99.90;;;;;;5004679;28;20046;-71
2022/07/07 00:26:30;;;;;;;11.70;7.32;;;14.80;99.90;;;;;;5005109;28;20061;-69
2022/07/07 00:28:55;;;;;;;29.55;6.75;;;14.80;99.90;;;;;;5005274;28;20038;-70
2022/07/07 00:31:21;;;;;;;13.30;7.75;;;14.80;99.90;;;;;;5005926;28;20034;-69
2022/07/07 00:33:46;;;;;;;13.20;7.43;;;14.90;99.90;;;;;;5005624;28;20053;-69
2022/07/07 00:36:12;;;;;;;10.88;6.57;;;14.90;99.90;;;;;;5005437;28;20034;-69
2022/07/07 00:38:38;;;;;;;18.17;7.78;;;14.90;99.90;;;;;;5005236;28;20058;-70
2022/07/07 00:41:04;;;;;;;18.95;8.73;;;14.90;99.90;;;;;;5005152;28;20078;-69
2022/07/07 00:43:39;;;;;;;16.00;8.05;;;14.90;99.90;;;;;;5004975;28;20034;-69
2022/07/07 00:46:06;;;;;;;17.88;7.80;;;14.90;99.90;;;;;;5005121;28;20038;-68
2022/07/07 00:48:35;;;;;;;12.35;7.22;;;14.90;99.90;;;;;;5005081;28;20014;-70
2022/07/07 00:51:01;;;;;;;16.60;8.43;;;14.90;99.90;;;;;;5004771;28;20558;-69
2022/07/07 00:53:27;;;;;;;15.80;8.52;;;14.90;99.90;;;;;;5005469;28;20061;-68
2022/07/07 00:55:52;;;;;;;21.90;8.05;;;14.90;99.90;;;;;;5005086;28;20068;-69
2022/07/07 00:58:18;;;;;;;17.55;9.02;;;15.00;99.90;;;;;;5004985;28;20057;-69
2022/07/07 01:00:43;;;;;;;14.65;7.88;;;14.90;99.90;;;;;;5004830;28;20027;-70
2022/07/07 01:03:09;;;;;;;14.88;7.82;;;14.90;99.90;;;;;;5004923;28;20056;-72
2022/07/07 01:05:36;;;;;;;13.80;7.63;;;15.00;99.90;;;;;;5004549;28;20038;-71
2022/07/07 01:08:04;;;;;;;17.27;7.50;;;14.90;99.90;;;;;;5005123;28;20027;-68
2022/07/07 01:10:31;;;;;;;12.80;7.95;;;15.00;99.90;;;;;;5004585;28;20045;-70
2022/07/07 01:13:01;;;;;;;10.68;7.30;;;14.90;99.90;;;;;;5002940;28;20026;-72
2022/07/07 01:15:26;;;;;;;10.80;6.97;;;15.00;99.90;;;;;;5004803;28;20117;-70
2022/07/07 01:17:52;;;;;;;23.80;8.60;;;15.00;99.90;;;;;;5004987;28;20058;-69
2022/07/07 01:20:20;;;;;;;14.75;8.15;;;15.00;99.90;;;;;;5004707;28;20027;-68
2022/07/07 01:22:48;;;;;;;13.32;8.32;;;15.00;99.90;;;;;;5003771;28;20041;-68
2022/07/07 01:25:13;;;;;;;13.80;8.70;;;15.00;99.90;;;;;;5003546;28;20046;-69
2022/07/07 01:27:39;;;;;;;14.13;7.53;;;15.00;99.90;;;;;;5004335;28;20111;-69
2022/07/07 01:30:05;;;;;;;21.85;7.78;;;15.00;99.90;;;;;;5004168;28;20022;-71
2022/07/07 01:32:31;;;;;;;15.85;8.05;;;15.00;99.90;;;;;;5004029;28;20026;-71
2022/07/07 01:34:57;;;;;;;12.52;6.68;;;15.00;99.90;;;;;;5003860;28;20034;-70
2022/07/07 01:37:24;;;;;;;17.55;7.80;;;15.00;99.90;;;;;;5004443;28;20030;-69
2022/07/07 01:39:51;;;;;;;17.42;7.95;;;15.00;99.90;;;;;;5003186;28;20614;-69
2022/07/07 01:42:17;;;;;;;13.70;6.57;;;15.00;99.90;;;;;;5004605;28;20114;-68
2022/07/07 01:44:43;;;;;;;17.63;7.00;;;15.00;99.90;;;;;;5004379;28;20030;-68
2022/07/07 01:47:10;;;;;;;12.55;7.90;;;15.00;99.90;;;;;;5003855;28;20049;-69
2022/07/07 01:49:37;;;;;;;13.85;6.88;;;15.00;99.90;;;;;;5004195;28;20045;-71
2022/07/07 01:52:03;;;;;;;12.88;7.32;;;15.10;99.90;;;;;;5003777;28;20033;-70
2022/07/07 01:54:30;;;;;;;20.73;7.75;;;15.00;99.90;;;;;;5004090;28;20031;-69
2022/07/07 01:56:56;;;;;;;11.52;6.75;;;15.00;99.90;;;;;;5004363;28;20108;-69
2022/07/07 01:59:22;;;;;;;17.45;6.85;;;15.00;99.90;;;;;;5003727;28;20034;-67
2022/07/07 02:01:48;;;;;;;12.70;6.65;;;15.10;99.90;;;;;;5003986;28;20031;-70
2022/07/07 02:04:13;;;;;;;12.43;6.43;;;15.10;99.90;;;;;;5003495;28;20069;-68
2022/07/07 02:06:39;;;;;;;11.90;6.68;;;15.00;99.90;;;;;;5003565;28;20129;-68
2022/07/07 02:09:06;;;;;;;19.00;6.22;;;15.10;99.90;;;;;;5003701;28;20018;-69
2022/07/07 02:11:32;;;;;;;10.90;6.82;;;15.10;99.90;;;;;;5001561;28;20048;-68
2022/07/07 02:13:58;;;;;;;20.10;6.60;;;15.10;99.90;;;;;;5003065;28;20499;-70
2022/07/07 02:16:25;;;;;;;15.25;7.45;;;15.10;99.90;;;;;;5004176;28;20086;-68
2022/07/07 02:18:56;;;;;;;13.88;6.75;;;15.10;99.90;;;;;;5003096;28;20024;-68
2022/07/07 02:21:23;;;;;;;15.65;6.82;;;15.10;99.90;;;;;;5003320;28;20023;-68
2022/07/07 02:23:50;;;;;;;12.70;6.55;;;15.10;99.90;;;;;;5003634;28;20026;-69
2022/07/07 02:26:16;;;;;;;9.10;5.82;;;15.10;99.90;;;;;;5003051;28;20042;-67
2022/07/07 02:28:42;;;;;;;8.23;5.65;;;15.10;99.90;;;;;;5002802;28;20026;-69
2022/07/07 02:31:08;;;;;;;10.93;6.30;;;15.10;99.90;;;;;;5003637;28;20022;-67
2022/07/07 02:33:35;;;;;;;7.93;5.10;;;15.20;99.90;;;;;;5003139;28;20019;-67
2022/07/07 02:36:03;;;;;;;9.98;5.80;;;15.20;99.90;;;;;;5003104;28;20054;-70
2022/07/07 02:38:29;;;;;;;12.20;6.05;;;15.10;99.90;;;;;;5002028;28;20050;-69
2022/07/07 02:40:55;;;;;;;9.80;5.55;;;15.20;99.90;;;;;;5002234;28;20050;-69
2022/07/07 02:43:22;;;;;;;14.68;6.22;;;15.20;99.90;;;;;;5003454;28;20026;-68
2022/07/07 02:45:49;;;;;;;14.50;6.20;;;15.20;99.90;;;;;;5002354;28;20038;-71
2022/07/07 02:48:17;;;;;;;12.35;7.00;;;15.20;99.90;;;;;;5001533;28;20027;-69
2022/07/07 02:50:43;;;;;;;8.57;5.50;;;15.20;99.90;;;;;;5002912;28;20053;-69
2022/07/07 02:53:10;;;;;;;15.18;6.35;;;15.20;99.90;;;;;;5003232;28;20053;-67
2022/07/07 02:55:36;;;;;;;12.63;5.90;;;15.20;99.90;;;;;;5002217;28;20018;-67
2022/07/07 02:58:04;;;;;;;12.05;6.47;;;15.20;99.90;;;;;;5003145;28;20706;-70
2022/07/07 03:00:33;;;;;;;12.48;6.00;;;15.20;99.90;;;;;;5002790;28;20068;-69
2022/07/07 03:03:01;;;;;;;12.82;6.20;;;15.20;99.90;;;;;;5002444;28;20403;-70
2022/07/07 03:05:26;;;;;;;8.45;5.25;;;15.20;99.90;;;;;;5003227;28;20038;-69
2022/07/07 03:07:52;;;;;;;14.77;4.93;;;15.10;99.90;;;;;;5002911;28;20570;-68
2022/07/07 03:10:18;;;;;;;13.57;6.55;;;15.30;99.90;;;;;;5002376;28;20031;-69
2022/07/07 03:12:43;;;;;;;12.65;6.97;;;15.20;99.90;;;;;;5002967;28;20046;-68
2022/07/07 03:15:10;;;;;;;9.65;4.95;;;15.30;99.90;;;;;;5002414;28;20486;-70
2022/07/07 03:17:36;;;;;;;11.18;5.93;;;15.20;99.90;;;;;;5002442;28;20022;-68
2022/07/07 03:20:04;;;;;;;8.23;5.68;;;15.20;99.90;;;;;;5002812;28;20035;-68
2022/07/07 03:22:29;;;;;;;13.10;6.78;;;15.20;99.90;;;;;;5002292;28;20030;-69
2022/07/07 03:24:56;;;;;;;9.43;5.63;;;15.20;99.90;;;;;;5002723;28;20030;-68
2022/07/07 03:27:21;;;;;;;13.38;6.60;;;15.20;99.90;;;;;;5002541;28;20041;-67
2022/07/07 03:29:47;;;;;;;12.65;6.72;;;15.20;99.90;;;;;;5000124;28;20026;-69
2022/07/07 03:32:12;;;;;;;16.42;6.70;;;15.20;99.90;;;;;;5002332;28;20033;-67
2022/07/07 03:34:38;;;;;;;8.80;5.55;;;15.20;99.90;;;;;;5002415;28;20447;-68
2022/07/07 03:37:04;;;;;;;13.27;5.82;;;15.20;99.90;;;;;;5002078;28;20037;-67
2022/07/07 03:39:29;;;;;;;9.70;6.43;;;15.10;99.90;;;;;;5002272;28;20047;-67
2022/07/07 03:41:56;;;;;;;15.07;6.53;;;15.20;99.90;;;;;;5002234;28;20038;-67
2022/07/07 03:44:21;;;;;;;13.43;6.00;;;15.20;99.90;;;;;;5001935;28;20035;-68
2022/07/07 03:46:47;;;;;;;14.02;6.05;;;15.20;99.90;;;;;;5002221;28;20052;-67
2022/07/07 03:49:13;;;;;;;12.35;5.97;;;15.10;99.90;;;;;;5002191;28;20490;-69
2022/07/07 03:51:38;;;;;;;10.20;6.35;;;15.10;99.90;;;;;;5002157;28;20074;-67
2022/07/07 03:54:04;;;;;;;8.48;5.15;;;15.10;99.90;;;;;;5002112;28;20018;-68
2022/07/07 03:56:30;;;;;;;8.70;5.10;;;15.20;99.90;;;;;;5001438;28;20022;-69
2022/07/07 03:58:56;;;;;;;6.25;4.20;;;15.20;99.90;;;;;;5004685;28;20103;-69
2022/07/07 04:01:22;;;;;;;9.10;5.57;;;15.10;99.90;;;;;;5006466;28;20023;-69
2022/07/07 04:03:47;;;;;;;7.15;3.83;;;15.20;99.90;;;;;;5005623;28;20037;-70
2022/07/07 04:06:13;;;;;;;10.18;5.35;;;15.20;99.90;;;;;;5006067;28;20050;-69
2022/07/07 04:08:39;;;;;;;7.47;4.93;;;15.20;99.90;;;;;;5005991;28;20080;-69
2022/07/07 04:11:05;;;;;;;14.07;5.60;;;15.20;99.90;;;;;;5005762;28;20046;-69
2022/07/07 04:13:31;;;;;;;9.20;5.22;;;15.20;99.90;;;;;;5005499;28;20034;-70
2022/07/07 04:15:57;;;;;;;10.50;4.20;;;15.20;99.90;;;;;;5005205;28;20018;-71
2022/07/07 04:18:24;;;;;;;6.22;3.85;;;15.20;99.90;;;;;;5004054;28;20026;-71
2022/07/07 04:20:52;;;;;;;9.68;3.72;;;15.20;99.90;;;;;;5005466;28;20410;-69
2022/07/07 04:23:17;;;;;;;4.65;3.35;;;15.30;99.90;;;;;;5006010;28;20533;-69
2022/07/07 04:25:43;;;;;;;8.68;4.22;;;15.30;99.90;;;;;;5005548;28;20046;-70
2022/07/07 04:28:08;;;;;;;7.55;4.10;;;15.30;99.90;;;;;;5005280;28;20014;-70
2022/07/07 04:30:34;;;;;;;8.25;4.30;;;15.40;99.90;;;;;;5005447;28;20073;-72
2022/07/07 04:33:00;;;;;;;5.70;3.05;;;15.40;99.90;;;;;;5005619;28;20042;-71
2022/07/07 04:35:26;;;;;;;6.38;2.75;;;15.30;99.90;;;;;;5005779;28;20406;-72
2022/07/07 04:37:52;;;;;;;7.13;3.20;;;15.40;99.90;;;;;;5005011;28;20034;-72
2022/07/07 04:40:17;;;;;;;3.88;2.45;;;15.40;99.90;;;;;;5005695;28;20041;-71
2022/07/07 04:42:43;;;;;;;4.18;2.35;;;15.40;99.90;;;;;;5004305;28;20054;-72
2022/07/07 04:45:09;;;;;;;5.70;2.95;;;15.40;99.90;;;;;;5003607;28;20502;-73
2022/07/07 04:47:42;;;;;;;3.88;2.45;;;15.40;99.90;;;;;;5005396;28;20046;-75
2022/07/07 04:50:08;;;;;;;3.92;2.67;;;15.40;99.90;;;;;;5005609;28;20030;-72
2022/07/07 04:52:37;;;;;;;4.20;2.15;;;15.40;99.90;;;;;;5004132;28;20037;-72
2022/07/07 04:55:04;;;;;;;2.75;1.75;;;15.40;99.90;;;;;;5004616;28;20038;-73
2022/07/07 04:57:30;;;;;;;2.85;2.00;;;15.40;99.90;;;;;;5004977;28;20595;-70
2022/07/07 04:59:56;;;;;;;2.72;2.08;;;15.40;99.90;;;;;;5005360;28;20049;-72
2022/07/07 05:02:21;;;;;;;2.70;1.60;;;15.40;99.90;;;;;;5003832;28;20034;-68
2022/07/07 05:04:49;;;;;;;4.32;2.17;;;15.40;99.90;;;;;;5005252;28;20027;-68
2022/07/07 05:07:15;;;;;;;2.55;1.92;;;15.40;99.90;;;;;;5004417;28;20046;-70
2022/07/07 05:09:41;;;;;;;3.97;2.38;;;15.40;99.90;;;;;;5003398;28;20050;-72
2022/07/07 05:12:11;;;;;;;2.00;1.67;;;15.50;99.90;;;;;;4998699;28;20023;-70
2022/07/07 05:14:37;;;;;;;2.85;1.92;;;15.40;99.90;;;;;;5004329;28;20061;-69
2022/07/07 05:17:03;;;;;;;5.05;2.17;;;15.40;99.90;;;;;;5005045;28;20117;-70
2022/07/07 05:19:29;;;;;;;3.30;1.80;;;15.40;99.90;;;;;;5004023;28;20034;-70
2022/07/07 05:21:55;;;;;;;2.67;1.98;;;15.40;99.90;;;;;;5003104;28;20062;-74
2022/07/07 05:24:21;;;;;;;3.40;1.65;;;15.50;99.90;;;;;;5003076;28;20045;-69
2022/07/07 05:26:47;;;;;;;2.75;1.52;;;15.50;99.90;;;;;;4995957;28;20047;-72
2022/07/07 05:29:14;;;;;;;3.60;1.50;;;15.50;99.90;;;;;;4996759;28;20065;-72
2022/07/07 05:31:40;;;;;;;1.85;1.52;;;15.50;99.90;;;;;;5001427;28;20052;-74
2022/07/07 05:34:06;;;;;;;3.28;1.65;;;15.70;99.90;;;;;;5002610;28;20097;-71
2022/07/07 05:36:32;;;;;;;4.72;1.50;;;15.80;99.90;;;;;;5003588;28;20035;-71
2022/07/07 05:38:59;;;;;;;2.65;1.52;;;15.70;99.90;;;;;;5003343;28;20053;-71
2022/07/07 05:41:24;;;;;;;1.88;1.38;;;15.70;99.90;;;;;;5003530;28;20046;-70
2022/07/07 05:43:50;;;;;;;2.17;1.27;;;15.80;99.90;;;;;;5002977;28;20022;-71
2022/07/07 05:46:16;;;;;;;2.65;1.20;;;15.80;99.90;;;;;;5000414;28;20042;-71
2022/07/07 05:48:41;;;;;;;4.45;1.38;;;15.80;99.90;;;;;;4997517;28;20065;-71
2022/07/07 05:51:07;;;;;;;1.83;1.05;;;15.80;99.90;;;;;;5002076;28;20026;-70
2022/07/07 05:53:32;;;;;;;3.47;1.55;;;15.80;99.90;;;;;;5001349;28;20082;-71
2022/07/07 05:55:59;;;;;;;1.63;1.17;;;15.80;99.90;;;;;;5000357;28;20085;-72
2022/07/07 05:58:24;;;;;;;2.95;0.93;;;15.80;99.90;;;;;;5001841;28;20146;-72
2022/07/07 06:00:50;;;;;;;1.30;0.95;;;15.80;99.90;;;;;;5001805;28;20053;-71
2022/07/07 06:03:16;;;;;;;1.42;0.77;;;15.90;99.90;;;;;;5003151;28;20890;-70
2022/07/07 06:05:43;;;;;;;3.95;1.38;;;15.80;99.90;;;;;;5003687;28;20033;-74
2022/07/07 06:08:08;;;;;;;1.08;0.90;;;15.80;99.90;;;;;;5002099;28;20029;-71
2022/07/07 06:10:34;;;;;;;1.58;0.90;;;15.80;99.90;;;;;;5002858;28;20101;-74
2022/07/07 06:13:00;;;;;;;0.95;0.70;;;15.80;99.90;;;;;;5002615;28;20033;-69
2022/07/07 06:15:27;;;;;;;0.93;0.82;;;15.70;99.90;;;;;;5001426;28;20538;-71
2022/07/07 06:17:54;;;;;;;2.22;0.70;;;15.80;99.90;;;;;;5003109;28;20023;-70
2022/07/07 06:20:20;;;;;;;1.33;0.68;;;15.90;99.90;;;;;;5002996;28;20765;-70
2022/07/07 06:22:45;;;;;;;0.82;0.63;;;15.90;99.90;;;;;;5001793;28;20082;-69
2022/07/07 06:25:11;;;;;;;3.72;0.73;;;15.90;99.90;;;;;;5002083;28;20049;-70
2022/07/07 06:27:37;;;;;;;3.78;0.98;;;15.80;99.90;;;;;;5000750;28;20029;-69
2022/07/07 06:30:04;;;;;;;3.05;0.90;;;15.90;99.90;;;;;;5000672;28;20469;-73
2022/07/07 06:32:31;;;;;;;2.67;0.60;;;15.90;99.90;;;;;;5001840;28;20037;-72
2022/07/07 06:34:57;;;;;;;0.47;0.40;;;15.90;99.90;;;;;;5001190;28;20026;-75
2022/07/07 06:37:23;;;;;;;1.38;0.63;;;15.80;99.90;;;;;;4995603;28;20065;-69
2022/07/07 06:39:49;;;;;;;0.50;0.17;;;15.90;99.90;;;;;;5000941;28;20129;-72
2022/07/07 06:42:16;;;;;;;0.40;0.38;;;15.90;99.90;;;;;;5000503;28;20061;-70
2022/07/07 06:44:41;;;;;;;0.40;0.32;;;15.90;99.90;;;;;;5000983;28;20034;-70
2022/07/07 06:47:07;;;;;;;0.30;0.30;;;15.90;99.90;;;;;;5002183;28;20058;-72
2022/07/07 06:49:33;;;;;;;2.03;1.02;;;16.00;99.90;;;;;;5001803;28;20034;-71
2022/07/07 06:51:58;;;;;;;0.50;0.40;;;15.90;99.90;;;;;;5000651;28;20038;-69
2022/07/07 06:54:24;;;;;;;2.47;0.80;;;15.90;99.90;;;;;;4999976;28;20034;-70
2022/07/07 06:56:50;;;;;;;1.10;0.50;;;15.90;99.90;;;;;;5000356;28;20042;-71
2022/07/07 06:59:16;;;;;;;3.63;0.52;;;15.90;99.90;;;;;;5000896;28;20034;-69
2022/07/07 07:01:42;;;;;;;2.05;0.52;;;16.00;99.90;;;;;;5000399;28;20475;-67
2022/07/07 07:04:13;;;;;;;1.23;0.68;;;16.00;99.90;;;;;;5000643;28;20062;-70
2022/07/07 07:06:42;;;;;;;6.75;1.00;;;16.10;99.90;;;;;;5001608;28;20042;-71
2022/07/07 07:09:08;;;;;;;2.20;0.90;;;16.20;99.90;;;;;;5000763;28;20026;-69
2022/07/07 07:11:34;;;;;;;0.85;0.65;;;16.40;99.90;;;;;;5000307;28;20019;-70
2022/07/07 07:14:02;;;;;;;2.00;0.80;;;16.40;99.90;;;;;;4999444;28;20502;-73
2022/07/07 07:16:29;;;;;;;4.00;1.20;;;16.50;99.90;;;;;;4999192;28;20084;-69
2022/07/07 07:18:55;;;;;;;1.05;0.52;;;16.50;99.90;;;;;;4999729;28;20348;-72
2022/07/07 07:21:20;;;;;;;1.00;0.70;;;16.50;99.90;;;;;;4999242;28;20045;-73
2022/07/07 07:23:50;;;;;;;1.33;0.80;;;16.40;99.90;;;;;;5000299;28;20141;-70
2022/07/07 07:26:16;;;;;;;1.90;0.77;;;16.40;99.90;;;;;;4999531;28;20038;-74
2022/07/07 07:28:42;;;;;;;2.25;0.90;;;16.30;99.90;;;;;;4999349;28;20034;-73
2022/07/07 07:31:07;;;;;;;1.80;1.00;;;16.30;99.90;;;;;;4999917;28;20057;-70
2022/07/07 07:33:35;;;;;;;3.00;1.25;;;16.30;99.90;;;;;;4999306;28;20069;-71
2022/07/07 07:36:07;;;;;;;1.08;0.75;;;16.30;99.90;;;;;;5001708;28;20019;-70
2022/07/07 07:38:37;;;;;;;3.20;1.33;;;16.30;99.90;;;;;;4998516;28;20058;-70
2022/07/07 07:41:05;;;;;;;1.27;1.00;;;16.40;99.90;;;;;;4998882;28;20081;-69
2022/07/07 07:43:31;;;;;;;1.88;0.90;;;16.40;99.90;;;;;;5000612;28;20085;-70
2022/07/07 07:45:57;;;;;;;3.72;1.00;;;16.50;99.90;;;;;;4998868;28;20363;-72
2022/07/07 07:48:23;;;;;;;1.80;0.80;;;16.50;99.90;;;;;;5000417;28;20109;-71
2022/07/07 07:50:49;;;;;;;5.05;1.02;;;16.70;99.90;;;;;;5000669;28;20066;-70
2022/07/07 07:53:15;;;;;;;1.25;0.77;;;16.70;99.90;;;;;;4999911;28;20019;-69
2022/07/07 07:55:40;;;;;;;4.10;1.08;;;16.70;99.90;;;;;;4998045;28;20055;-71
2022/07/07 07:58:12;;;;;;;2.22;0.85;;;16.60;99.90;;;;;;4999747;28;20025;-72
2022/07/07 08:00:42;;;;;;;2.00;0.80;;;16.80;99.90;;;;;;4999183;28;20557;-72
2022/07/07 08:03:08;;;;;;;2.65;0.98;;;16.80;99.90;;;;;;5000398;28;20041;-70
2022/07/07 08:05:33;;;;;;;8.05;1.00;;;16.80;99.90;;;;;;5000838;28;20038;-70
2022/07/07 08:07:59;;;;;;;2.53;1.10;;;16.60;99.90;;;;;;4998349;28;20030;-72
2022/07/07 08:10:24;;;;;;;3.95;0.93;;;16.50;99.90;;;;;;5000807;28;20492;-72
2022/07/07 08:12:50;;;;;;;1.70;1.00;;;16.40;99.90;;;;;;4997158;28;20106;-70
2022/07/07 08:15:17;;;;;;;1.02;0.80;;;16.30;99.90;;;;;;5000531;28;20038;-70
2022/07/07 08:17:42;;;;;;;5.88;1.10;;;16.30;99.90;;;;;;5000210;28;20050;-69
2022/07/07 08:20:08;;;;;;;3.00;0.93;;;16.20;99.90;;;;;;4999334;28;20034;-70
2022/07/07 08:22:38;;;;;;;5.10;1.20;;;16.20;99.90;;;;;;5001651;28;20074;-71
2022/07/07 08:25:04;;;;;;;4.30;1.45;;;16.20;99.90;;;;;;4997525;28;20082;-70
2022/07/07 08:27:30;;;;;;;6.95;1.08;;;16.30;99.90;;;;;;4996329;28;20018;-70
2022/07/07 08:29:56;;;;;;;4.10;0.93;;;16.30;99.90;;;;;;5000610;28;20375;-70
2022/07/07 08:32:25;;;;;;;2.55;1.27;;;16.40;99.90;;;;;;5000686;28;20030;-70
2022/07/07 08:34:50;;;;;;;5.70;2.15;;;16.40;99.90;;;;;;4999853;28;20034;-69
2022/07/07 08:37:16;;;;;;;1.88;1.30;;;16.50;99.90;;;;;;4999743;28;20035;-70
2022/07/07 08:39:42;;;;;;;1.77;1.10;;;16.50;99.90;;;;;;5000259;28;20058;-70
2022/07/07 08:42:07;;;;;;;3.97;0.88;;;16.50;99.90;;;;;;5000991;28;20030;-71
2022/07/07 08:44:33;;;;;;;9.80;1.05;;;16.50;99.90;;;;;;5001212;28;20049;-73
2022/07/07 08:46:59;;;;;;;4.53;1.70;;;16.60;99.90;;;;;;5003643;28;20042;-73
2022/07/07 08:49:27;;;;;;;9.40;1.60;;;16.70;99.90;;;;;;5004310;28;20045;-71
2022/07/07 08:51:54;;;;;;;2.20;0.88;;;16.80;99.90;;;;;;5004012;28;20064;-74
2022/07/07 08:54:20;;;;;;;1.55;0.77;;;16.90;99.90;;;;;;5002390;28;20040;-71
2022/07/07 08:56:46;;;;;;;4.95;0.82;;;16.90;99.90;;;;;;5002420;28;20050;-71
2022/07/07 08:59:13;;;;;;;4.57;1.08;;;17.00;99.90;;;;;;4999058;28;20030;-70
2022/07/07 09:01:40;;;;;;;1.30;0.60;;;17.00;99.90;;;;;;5003762;28;20038;-67
2022/07/07 09:04:06;;;;;;;5.68;1.02;;;17.10;99.90;;;;;;5004403;28;20456;-70
2022/07/07 09:06:32;;;;;;;0.43;0.40;;;17.20;99.90;;;;;;5004394;28;20061;-68
2022/07/07 09:08:58;;;;;;;1.73;0.57;;;17.00;99.90;;;;;;5003348;28;20026;-74
2022/07/07 09:11:34;;;;;;;1.65;0.82;;;16.80;99.90;;;;;;5002474;28;20027;-69
2022/07/07 09:14:12;;;;;;;1.80;0.93;;;16.70;99.90;;;;;;5003596;28;20033;-70
2022/07/07 09:16:37;;;;;;;7.15;1.35;;;16.60;99.90;;;;;;5003677;28;20042;-68
2022/07/07 09:19:16;;;;;;;1.05;0.63;;;16.60;99.90;;;;;;5003396;28;20038;-70
2022/07/07 09:21:42;;;;;;;5.00;1.35;;;16.60;99.90;;;;;;5002598;28;20026;-70
2022/07/07 09:24:07;;;;;;;1.65;0.77;;;16.50;99.90;;;;;;5001180;28;20033;-72
2022/07/07 09:26:35;;;;;;;3.10;1.23;;;16.70;99.90;;;;;;5001427;28;20049;-70
2022/07/07 09:29:00;;;;;;;1.55;0.90;;;16.90;99.90;;;;;;5002063;28;20130;-68
2022/07/07 09:31:50;;;;;;;4.07;0.77;;;17.00;99.90;;;;;;5002164;28;20026;-71
2022/07/07 09:34:16;;;;;;;3.47;0.80;;;17.00;99.90;;;;;;5003866;28;20018;-69
2022/07/07 09:39:45;;;;;;;4.82;1.35;;;17.10;99.90;;;;;;4999961;28;20497;-69
2022/07/07 09:42:25;;;;;;;;;;;17.20;99.90;;;;;;5003435;28;20022;-71
2022/07/07 09:44:56;;;;;;;4.22;0.90;;;17.40;99.90;;;;;;5004197;28;19905;-70
2022/07/07 09:47:23;;;;;;;1.80;0.88;;;17.60;99.90;;;;;;5001973;28;20042;-71
2022/07/07 09:50:00;;;;;;;2.17;0.80;;;17.80;99.90;;;;;;5003417;28;20046;-70
2022/07/07 09:52:27;;;;;;;0.82;0.32;;;17.80;99.90;;;;;;5004183;28;20062;-70
2022/07/07 09:54:54;;;;;;;2.15;0.70;;;17.60;99.90;;;;;;5002345;28;20093;-70
2022/07/07 09:57:19;;;;;;;6.13;0.82;;;17.50;99.90;;;;;;5002912;28;20038;-68
2022/07/07 09:59:45;;;;;;;2.42;0.70;;;17.50;99.90;;;;;;5001820;28;20033;-72
2022/07/07 10:02:26;;;;;;;0.43;0.32;;;17.50;99.90;;;;;;5002916;28;20042;-70
2022/07/07 10:04:54;;;;;;;5.22;0.55;;;17.50;99.90;;;;;;5002211;28;20022;-70
2022/07/07 10:07:22;;;;;;;5.50;0.75;;;17.60;99.90;;;;;;5002535;28;20656;-70
2022/07/07 10:10:06;;;;;;;3.22;0.57;;;17.70;99.90;;;;;;5002578;28;20030;-68
2022/07/07 10:12:33;;;;;;;4.50;0.80;;;17.70;99.90;;;;;;5002150;28;20030;-70
2022/07/07 10:15:00;;;;;;;2.58;0.73;;;17.70;99.90;;;;;;5002760;28;20033;-69
2022/07/07 10:17:27;;;;;;;3.58;0.93;;;17.60;99.90;;;;;;5001817;28;20028;-70
2022/07/07 10:19:53;;;;;;;2.75;0.93;;;17.50;99.90;;;;;;5002115;28;20022;-70
2022/07/07 10:22:21;;;;;;;4.22;0.85;;;17.70;99.90;;;;;;5001071;28;21562;-69
2022/07/07 10:24:47;;;;;;;1.33;0.57;;;17.90;99.90;;;;;;5000567;28;20034;-71
2022/07/07 10:27:15;;;;;;;3.08;0.50;;;18.10;99.90;;;;;;5000940;28;20098;-71
2022/07/07 10:29:45;;;;;;;7.97;0.60;;;18.20;99.90;;;;;;5001421;28;20034;-69
2022/07/07 10:32:16;;;;;;;1.40;0.40;;;18.10;99.90;;;;;;5002057;28;20026;-70
2022/07/07 10:34:50;;;;;;;0.80;0.55;;;17.90;99.90;;;;;;4998521;28;20022;-71
2022/07/07 10:37:16;;;;;;;1.02;0.63;;;17.70;99.90;;;;;;4996260;28;20050;-69
2022/07/07 10:39:44;;;;;;;1.90;0.55;;;17.80;99.90;;;;;;4996527;28;20042;-72
2022/07/07 10:42:18;;;;;;;0.28;0.22;;;17.90;99.90;;;;;;4998929;28;20034;-71
2022/07/07 10:44:44;;;;;;;0.23;0.23;;;18.30;99.90;;;;;;5001759;28;20034;-71
2022/07/07 10:47:13;;;;;;;0.77;0.40;;;18.40;99.90;;;;;;5001181;28;20324;-70
2022/07/07 10:49:39;;;;;;;0.45;0.22;;;18.50;99.90;;;;;;4999352;28;20023;-70
2022/07/07 10:52:19;;;;;;;0.57;0.40;;;18.50;99.90;;;;;;5001155;28;20031;-72
2022/07/07 10:54:53;;;;;;;0.25;0.20;;;18.60;99.90;;;;;;5001000;28;20486;-70
2022/07/07 10:57:21;;;;;;;1.25;0.90;;;18.80;99.90;;;;;;5000249;28;20038;-68
2022/07/07 10:59:56;;;;;;;2.70;0.70;;;18.70;99.90;;;;;;5000434;28;20443;-69
2022/07/07 11:02:36;;;;;;;3.95;0.57;;;18.60;99.90;;;;;;5000252;28;20030;-69
2022/07/07 11:05:24;;;;;;;2.83;0.40;;;18.50;99.90;;;;;;5000820;28;20088;-70
2022/07/07 11:07:55;;;;;;;0.65;0.30;;;18.40;99.90;;;;;;5001735;28;20034;-68
2022/07/07 11:10:22;;;;;;;0.60;0.17;;;18.20;99.90;;;;;;5001620;28;20090;-69
2022/07/07 11:12:53;;;;;;;2.92;0.65;;;17.90;99.90;;;;;;5001472;28;20518;-70
2022/07/07 11:15:21;;;;;;;0.55;0.47;;;17.90;99.90;;;;;;4999868;28;20026;-69
2022/07/07 11:18:09;;;;;;;2.47;0.60;;;18.10;99.90;;;;;;5001540;28;20023;-70
2022/07/07 11:20:36;;;;;;;0.30;0.30;;;18.40;99.90;;;;;;5001629;28;20027;-69
2022/07/07 11:23:07;;;;;;;0.50;0.40;;;18.60;99.90;;;;;;5000785;28;20033;-69
2022/07/07 11:25:34;;;;;;;1.20;0.50;;;18.50;99.90;;;;;;5001301;28;20061;-70
2022/07/07 11:28:00;;;;;;;1.77;0.43;;;18.20;99.90;;;;;;5001149;28;20552;-69
2022/07/07 11:30:26;;;;;;;0.52;0.40;;;17.90;99.90;;;;;;5000758;28;20068;-74
2022/07/07 11:32:56;;;;;;;0.63;0.30;;;17.50;99.90;;;;;;5001407;28;20061;-68
2022/07/07 11:35:21;;;;;;;0.88;0.30;;;17.50;99.90;;;;;;5001465;28;20037;-70
2022/07/07 11:37:47;;;;;;;0.30;0.20;;;17.50;99.90;;;;;;5001543;28;20030;-70
2022/07/07 11:40:13;;;;;;;2.17;0.30;;;17.50;99.90;;;;;;5001522;28;20018;-68
2022/07/07 11:42:41;;;;;;;0.45;0.30;;;17.30;99.90;;;;;;5000946;28;20057;-70
2022/07/07 11:45:21;;;;;;;1.80;0.90;;;17.20;99.90;;;;;;5001140;28;20513;-72
2022/07/07 11:47:49;;;;;;;0.55;0.45;;;17.30;99.90;;;;;;5000754;28;20054;-67
2022/07/07 11:50:15;;;;;;;2.13;0.75;;;17.30;99.90;;;;;;5001534;28;20054;-70
2022/07/07 11:52:48;;;;;;;5.40;1.40;;;17.20;99.90;;;;;;4998509;28;20121;-69
2022/07/07 11:55:16;;;;;;;3.35;1.17;;;17.10;99.90;;;;;;5001297;28;20033;-71
2022/07/07 11:57:41;;;;;;;5.85;1.60;;;16.90;99.90;;;;;;5001432;28;20030;-67
2022/07/07 12:00:14;;;;;;;2.42;0.80;;;16.70;99.90;;;;;;5000979;28;20086;-69
2022/07/07 12:02:41;;;;;;;2.78;1.42;;;16.40;99.90;;;;;;4998623;28;20030;-69
2022/07/07 12:05:07;;;;;;;3.63;1.48;;;16.40;99.90;;;;;;4994364;28;21784;-68
2022/07/07 12:07:33;;;;;;;17.65;1.58;;;16.40;99.90;;;;;;4995875;28;20035;-68
2022/07/07 12:09:59;;;;;;;7.55;2.22;;;16.40;99.90;;;;;;4998088;28;20030;-69
2022/07/07 12:12:25;;;;;;;5.47;1.55;;;16.40;99.90;;;;;;4999522;28;20026;-69
2022/07/07 12:14:51;;;;;;;4.22;1.83;;;16.40;99.90;;;;;;4999934;28;20018;-68
2022/07/07 12:17:38;;;;;;;0.90;0.65;;;16.70;99.90;;;;;;4999506;28;20122;-68
2022/07/07 12:20:05;;;;;;;1.65;0.68;;;16.70;99.90;;;;;;5003460;28;20119;-69
2022/07/07 12:22:42;;;;;;;1.92;0.65;;;16.90;99.90;;;;;;5004462;28;20035;-70
2022/07/07 12:25:10;;;;;;;5.45;1.40;;;17.10;99.90;;;;;;5001165;28;20030;-73
2022/07/07 12:27:59;;;;;;;4.97;1.30;;;17.30;99.90;;;;;;5003904;28;20050;-70
2022/07/07 12:30:28;;;;;;;2.38;0.93;;;17.50;99.90;;;;;;5003089;28;20034;-68
2022/07/07 12:32:54;;;;;;;5.60;1.05;;;17.80;99.90;;;;;;5004222;28;20486;-69
2022/07/07 12:35:37;;;;;;;2.05;1.00;;;17.80;99.90;;;;;;5002605;28;20084;-69
2022/07/07 12:38:05;;;;;;;8.13;0.95;;;17.80;99.90;;;;;;5004377;28;20057;-70
2022/07/07 12:40:33;;;;;;;9.43;1.77;;;17.60;99.90;;;;;;5003572;28;20030;-70
2022/07/07 12:43:11;;;;;;;4.03;1.42;;;17.50;99.90;;;;;;5004665;28;20137;-68
2022/07/07 12:45:38;;;;;;;3.97;1.25;;;17.40;99.90;;;;;;5004379;28;20065;-68
2022/07/07 12:48:15;;;;;;;9.50;1.55;;;17.40;99.90;;;;;;5003308;28;20034;-68
2022/07/07 12:50:42;;;;;;;8.45;1.67;;;17.30;99.90;;;;;;5003090;28;20022;-68